createdAt,value
2023-06-29T00:02:00.077Z,99999.20
2023-06-29T00:04:27.436Z,99993.20
2023-06-29T00:06:54.986Z,99996.80
2023-06-29T00:09:23.056Z,99997.20
2023-06-29T00:11:50.382Z,99997.00
2023-06-29T00:14:17.518Z,100002.20
2023-06-29T00:16:44.793Z,100005.20
2023-06-29T00:19:15.128Z,100000.40
2023-06-29T00:21:42.442Z,99991.80
2023-06-29T00:24:12.729Z,99987.60
2023-06-29T00:26:39.824Z,99991.20
2023-06-29T00:29:07.258Z,99992.40
2023-06-29T00:31:36.302Z,99989.80
2023-06-29T00:34:03.561Z,99993.60
2023-06-29T00:36:33.168Z,99986.20
2023-06-29T00:39:00.326Z,99981.40
2023-06-29T00:41:27.609Z,99985.40
2023-06-29T00:43:55.693Z,99972.00
2023-06-29T00:46:24.937Z,99966.80
2023-06-29T00:48:52.054Z,99965.00
2023-06-29T00:51:21.022Z,99962.60
2023-06-29T00:53:48.241Z,99966.60
2023-06-29T00:56:15.384Z,99964.20
2023-06-29T00:58:44.112Z,99959.80
2023-06-29T01:01:11.379Z,99954.80
2023-06-29T01:03:41.010Z,99950.60
2023-06-29T01:06:13.957Z,99956.00
2023-06-29T01:08:45.762Z,99962.40
2023-06-29T01:11:14.379Z,99960.80
2023-06-29T01:13:45.688Z,99955.00
2023-06-29T01:16:15.153Z,99951.60
2023-06-29T01:18:46.285Z,99951.40
2023-06-29T01:21:15.521Z,99950.40
2023-06-29T01:23:45.044Z,99948.80
2023-06-29T01:26:12.869Z,99957.20
2023-06-29T01:28:40.047Z,99959.80
2023-06-29T01:31:10.364Z,99964.80
2023-06-29T01:33:37.775Z,99966.40
2023-06-29T01:36:14.365Z,99958.80
2023-06-29T01:38:46.628Z,99957.00
2023-06-29T01:41:16.408Z,99951.00
2023-06-29T01:43:45.131Z,99949.80
2023-06-29T01:46:14.400Z,99951.20
2023-06-29T01:48:42.143Z,99946.40
2023-06-29T01:51:09.678Z,99944.40
2023-06-29T01:53:37.092Z,99946.00
2023-06-29T01:56:04.840Z,99939.20
2023-06-29T01:58:31.945Z,99938.40
2023-06-29T02:00:59.249Z,99936.40
2023-06-29T02:03:26.641Z,99935.00
2023-06-29T02:05:53.879Z,99931.20
2023-06-29T02:08:21.030Z,99932.60
2023-06-29T02:10:48.117Z,99936.00
2023-06-29T02:13:15.304Z,99936.60
2023-06-29T02:15:42.885Z,99941.40
2023-06-29T02:18:10.208Z,99942.00
2023-06-29T02:20:37.234Z,99937.80
2023-06-29T02:23:04.389Z,99937.00
2023-06-29T02:25:31.632Z,99932.40
2023-06-29T02:27:58.734Z,99939.00
2023-06-29T02:30:25.881Z,99938.00
2023-06-29T02:32:53.047Z,99938.00
2023-06-29T02:35:20.420Z,99940.40
2023-06-29T02:37:47.512Z,99935.20
2023-06-29T02:40:14.598Z,99932.40
2023-06-29T02:42:41.985Z,99935.20
2023-06-29T02:45:09.862Z,99932.00
2023-06-29T02:47:37.179Z,99927.00
2023-06-29T02:50:04.831Z,99925.80
2023-06-29T02:52:39.674Z,99926.40
2023-06-29T02:55:07.365Z,99928.00
2023-06-29T02:57:34.544Z,99928.20
2023-06-29T03:00:01.626Z,99928.00
2023-06-29T03:02:28.823Z,99923.40
2023-06-29T03:04:56.082Z,99924.00
2023-06-29T03:07:23.270Z,99928.20
2023-06-29T03:09:50.280Z,99931.80
2023-06-29T03:12:17.376Z,99929.80
2023-06-29T03:14:44.572Z,99930.00
2023-06-29T03:17:14.110Z,99927.60
2023-06-29T03:19:41.687Z,99928.00
2023-06-29T03:22:08.724Z,99929.80
2023-06-29T03:24:35.778Z,99929.80
2023-06-29T03:27:03.096Z,99931.20
2023-06-29T03:29:30.201Z,99928.20
2023-06-29T03:31:57.655Z,99930.80
2023-06-29T03:34:24.708Z,99926.60
2023-06-29T03:36:51.789Z,99928.20
2023-06-29T03:39:19.947Z,99927.80
2023-06-29T03:41:47.052Z,99923.80
2023-06-29T03:44:14.285Z,99924.20
2023-06-29T03:46:41.509Z,99920.40
2023-06-29T03:49:08.633Z,99927.00
2023-06-29T03:51:35.735Z,99923.20
2023-06-29T03:54:02.937Z,99921.00
2023-06-29T03:56:31.820Z,99918.20
2023-06-29T03:58:58.925Z,99916.80
2023-06-29T04:01:26.169Z,99915.40
2023-06-29T04:03:54.213Z,99913.60
2023-06-29T04:06:21.348Z,99919.60
2023-06-29T04:08:48.451Z,99923.20
2023-06-29T04:11:15.633Z,99923.00
2023-06-29T04:13:42.762Z,99924.00
2023-06-29T04:16:10.002Z,99921.40
2023-06-29T04:18:37.179Z,99919.60
2023-06-29T04:21:04.352Z,99919.00
2023-06-29T04:23:31.702Z,99922.20
2023-06-29T04:26:03.409Z,99922.20
2023-06-29T04:28:36.529Z,99918.80
2023-06-29T04:31:05.034Z,99914.00
2023-06-29T04:33:32.286Z,99913.00
2023-06-29T04:35:59.381Z,99918.80
2023-06-29T04:38:27.309Z,99919.60
2023-06-29T04:41:04.093Z,99921.00
2023-06-29T04:43:32.092Z,99914.00
2023-06-29T04:46:02.004Z,99918.00
2023-06-29T04:48:37.843Z,99923.40
2023-06-29T04:51:08.309Z,99933.80
2023-06-29T04:53:36.859Z,99937.80
2023-06-29T04:56:04.072Z,99933.80
2023-06-29T04:58:31.512Z,99937.60
2023-06-29T05:00:58.632Z,99944.80
2023-06-29T05:03:27.860Z,99952.40
2023-06-29T05:05:55.192Z,99954.00
2023-06-29T05:08:22.399Z,99955.00
2023-06-29T05:10:49.720Z,99950.60
2023-06-29T05:13:16.802Z,99948.20
2023-06-29T05:15:48.304Z,99949.20
2023-06-29T05:18:16.326Z,99946.20
2023-06-29T05:20:43.472Z,99953.60
2023-06-29T05:23:12.053Z,99945.60
2023-06-29T05:25:41.920Z,99939.00
2023-06-29T05:28:09.379Z,99940.00
2023-06-29T05:30:36.723Z,99939.40
2023-06-29T05:33:04.863Z,99938.60
2023-06-29T05:35:32.502Z,99944.40
2023-06-29T05:37:59.707Z,99944.20
2023-06-29T05:40:26.921Z,99938.00
2023-06-29T05:42:54.086Z,99935.60
2023-06-29T05:45:21.341Z,99937.20
2023-06-29T05:47:48.445Z,99943.80
2023-06-29T05:50:16.976Z,99939.20
2023-06-29T05:52:44.095Z,99944.40
2023-06-29T05:55:11.507Z,99940.80
2023-06-29T05:57:38.961Z,99940.80
2023-06-29T06:00:11.793Z,99941.00
2023-06-29T06:02:40.094Z,99937.40
2023-06-29T06:05:08.269Z,99933.20
2023-06-29T06:07:36.009Z,99933.00
2023-06-29T06:10:05.030Z,99938.20
2023-06-29T06:12:32.751Z,99939.00
2023-06-29T06:14:59.931Z,99942.00
2023-06-29T06:17:26.987Z,99940.60
2023-06-29T06:19:55.257Z,99947.80
2023-06-29T06:22:22.457Z,99937.20
2023-06-29T06:24:49.653Z,99940.60
2023-06-29T06:27:16.739Z,99939.20
2023-06-29T06:29:44.704Z,99933.00
2023-06-29T06:32:11.857Z,99929.40
2023-06-29T06:34:39.068Z,99926.00
2023-06-29T06:37:07.383Z,99927.40
2023-06-29T06:39:34.551Z,99930.60
2023-06-29T06:42:02.001Z,99930.60
2023-06-29T06:44:29.496Z,99928.80
2023-06-29T06:46:56.754Z,99926.40
2023-06-29T06:49:24.089Z,99927.20
2023-06-29T06:51:51.321Z,99929.40
2023-06-29T06:54:20.348Z,99931.80
2023-06-29T06:56:48.886Z,99931.20
2023-06-29T06:59:16.739Z,99930.20
2023-06-29T07:01:44.051Z,99927.20
2023-06-29T07:04:11.834Z,99928.00
2023-06-29T07:06:38.977Z,99931.40
2023-06-29T07:09:07.800Z,99933.40
2023-06-29T07:11:37.693Z,99930.80
2023-06-29T07:14:05.655Z,99935.60
2023-06-29T07:16:32.837Z,99935.80
2023-06-29T07:24:06.298Z,99941.60
2023-06-29T07:24:31.720Z,99945.00
2023-06-29T07:26:59.055Z,99943.20
2023-06-29T07:29:27.453Z,99940.40
2023-06-29T07:31:54.645Z,99942.00
2023-06-29T07:34:24.017Z,99942.00
2023-06-29T07:36:52.319Z,99939.40
2023-06-29T07:39:19.557Z,99938.40
2023-06-29T07:41:46.787Z,99936.60
2023-06-29T07:44:14.865Z,99937.40
2023-06-29T07:46:42.060Z,99940.20
2023-06-29T07:49:09.716Z,99940.40
2023-06-29T07:51:37.004Z,99942.80
2023-06-29T07:54:08.868Z,99939.20
2023-06-29T07:59:06.145Z,99933.60
2023-06-29T08:01:35.142Z,99938.60
2023-06-29T08:04:04.381Z,99937.60
2023-06-29T08:09:02.981Z,99941.60
2023-06-29T08:11:30.641Z,99935.80
2023-06-29T08:13:57.943Z,99938.60
2023-06-29T08:16:25.237Z,99938.20
2023-06-29T08:18:52.726Z,99933.00
2023-06-29T08:21:19.978Z,99930.00
2023-06-29T08:23:49.659Z,99927.80
2023-06-29T08:26:17.038Z,99927.60
2023-06-29T08:28:44.269Z,99929.40
2023-06-29T08:31:13.133Z,99923.20
2023-06-29T08:33:40.483Z,99926.80
2023-06-29T08:36:07.750Z,99926.20
2023-06-29T08:38:34.799Z,99922.00
2023-06-29T08:41:05.245Z,99918.20
2023-06-29T08:43:32.791Z,99916.80
2023-06-29T08:46:00.185Z,99914.20
2023-06-29T08:48:32.212Z,99913.40
2023-06-29T08:51:04.866Z,99915.00
2023-06-29T08:53:32.382Z,99916.20
2023-06-29T08:56:00.232Z,99920.20
2023-06-29T08:58:27.716Z,99918.20
2023-06-29T09:00:55.727Z,99921.20
2023-06-29T09:03:24.901Z,99921.20
2023-06-29T09:05:55.332Z,99920.20
2023-06-29T09:08:24.377Z,99925.80
2023-06-29T09:10:51.464Z,99920.60
2023-06-29T09:13:19.149Z,99915.60
2023-06-29T09:15:48.264Z,99912.40
2023-06-29T09:18:15.780Z,99911.60
2023-06-29T09:20:43.720Z,99914.00
2023-06-29T09:23:29.822Z,99911.80
2023-06-29T09:25:57.767Z,99915.40
2023-06-29T09:28:26.301Z,99911.40
2023-06-29T09:30:53.838Z,99910.80
2023-06-29T09:33:25.880Z,99914.00
2023-06-29T09:35:53.865Z,99907.80
2023-06-29T09:38:21.165Z,99906.00
2023-06-29T09:40:50.812Z,99905.60
2023-06-29T09:43:22.603Z,99905.60
2023-06-29T09:45:52.623Z,99905.40
2023-06-29T09:50:54.980Z,99903.40
2023-06-29T09:53:32.590Z,99900.20
2023-06-29T09:56:00.724Z,99900.40
2023-06-29T09:58:31.478Z,99898.00
2023-06-29T10:01:00.717Z,99893.40
2023-06-29T10:03:29.065Z,99896.20
2023-06-29T10:06:00.494Z,99899.40
2023-06-29T10:08:30.702Z,99896.20
2023-06-29T10:11:03.797Z,99890.60
2023-06-29T10:13:36.061Z,99887.40
2023-06-29T10:16:07.719Z,99885.20
2023-06-29T10:18:39.895Z,99881.80
2023-06-29T10:21:07.556Z,99880.80
2023-06-29T10:23:35.765Z,99876.80
2023-06-29T10:26:05.351Z,99879.00
2023-06-29T10:28:35.135Z,99876.60
2023-06-29T10:31:02.314Z,99875.80
2023-06-29T10:33:29.691Z,99867.00
2023-06-29T10:35:58.757Z,99868.80
2023-06-29T10:38:33.934Z,99869.40
2023-06-29T10:41:01.610Z,99866.60
2023-06-29T10:43:29.197Z,99869.00
2023-06-29T10:45:56.358Z,99873.20
2023-06-29T10:48:47.163Z,99867.80
2023-06-29T10:51:14.603Z,99866.80
2023-06-29T10:53:41.777Z,99866.40
2023-06-29T10:56:31.228Z,99870.40
2023-06-29T10:58:59.276Z,99869.00
2023-06-29T11:01:27.363Z,99866.20
2023-06-29T11:03:54.747Z,99867.00
2023-06-29T11:06:33.717Z,99868.80
2023-06-29T11:09:14.941Z,99867.20
2023-06-29T11:11:48.004Z,99866.60
2023-06-29T11:14:16.133Z,99860.60
2023-06-29T11:16:43.406Z,99860.20
2023-06-29T11:19:13.467Z,99858.80
2023-06-29T11:21:41.564Z,99860.40
2023-06-29T11:24:12.114Z,99869.00
2023-06-29T11:26:39.363Z,99864.60
2023-06-29T11:29:10.292Z,99863.60
2023-06-29T11:31:37.538Z,99866.20
2023-06-29T11:34:04.784Z,99866.20
2023-06-29T11:36:34.123Z,99859.20
2023-06-29T11:39:07.998Z,99859.00
2023-06-29T11:41:40.113Z,99858.20
2023-06-29T11:44:10.368Z,99853.80
2023-06-29T11:46:44.569Z,99857.40
2023-06-29T11:49:11.935Z,99857.60
2023-06-29T11:51:43.010Z,99852.80
2023-06-29T11:54:16.417Z,99848.20
2023-06-29T11:56:43.666Z,99852.20
2023-06-29T11:59:13.141Z,99853.60
2023-06-29T12:01:40.746Z,99853.60
2023-06-29T12:04:15.435Z,99856.00
2023-06-29T12:06:59.288Z,99858.40
2023-06-29T12:09:33.300Z,99858.80
2023-06-29T12:12:04.121Z,99853.00
2023-06-29T12:14:33.540Z,99855.60
2023-06-29T12:19:35.218Z,99854.00
2023-06-29T12:22:05.083Z,99849.80
2023-06-29T12:24:34.311Z,99846.80
2023-06-29T12:27:01.751Z,99844.00
2023-06-29T12:29:28.951Z,99841.80
2023-06-29T12:32:02.270Z,99838.80
2023-06-29T12:34:32.045Z,99837.40
2023-06-29T12:36:59.253Z,99840.60
2023-06-29T12:39:26.387Z,99832.00
2023-06-29T12:41:56.006Z,99832.40
2023-06-29T12:44:23.084Z,99831.60
2023-06-29T12:46:50.275Z,99830.60
2023-06-29T12:49:17.506Z,99832.40
2023-06-29T12:51:44.588Z,99828.00
2023-06-29T12:54:11.770Z,99828.40
2023-06-29T12:56:39.475Z,99825.40
2023-06-29T12:59:06.600Z,99825.20
2023-06-29T13:01:34.040Z,99824.20
2023-06-29T13:04:01.273Z,99826.00
2023-06-29T13:06:30.049Z,99828.20
2023-06-29T13:08:57.342Z,99827.40
2023-06-29T13:11:24.686Z,99825.00
2023-06-29T13:13:54.709Z,99820.80
2023-06-29T13:16:21.980Z,99810.40
2023-06-29T13:18:49.173Z,99813.60
2023-06-29T13:21:16.506Z,99815.00
2023-06-29T13:23:43.658Z,99817.20
2023-06-29T13:26:10.917Z,99811.80
2023-06-29T13:28:38.059Z,99806.20
2023-06-29T13:31:05.146Z,99804.40
2023-06-29T13:33:32.399Z,99805.40
2023-06-29T13:35:59.513Z,99807.80
2023-06-29T13:38:26.685Z,99809.00
2023-06-29T13:40:54.105Z,99806.20
2023-06-29T13:43:21.360Z,99805.20
2023-06-29T13:45:49.997Z,99803.00
2023-06-29T13:48:17.737Z,99804.40
2023-06-29T13:50:47.248Z,99798.00
2023-06-29T13:53:15.237Z,99796.60
2023-06-29T13:55:46.526Z,99797.40
2023-06-29T13:58:13.955Z,99795.80
2023-06-29T14:00:44.364Z,99794.20
2023-06-29T14:03:12.161Z,99793.00
2023-06-29T14:05:39.475Z,99796.80
2023-06-29T14:08:06.698Z,99795.60
2023-06-29T14:10:33.868Z,99790.20
2023-06-29T14:13:01.227Z,99792.40
2023-06-29T14:15:28.290Z,99790.00
2023-06-29T14:17:55.644Z,99786.40
2023-06-29T14:20:22.877Z,99788.40
2023-06-29T14:22:50.090Z,99784.80
2023-06-29T14:25:17.259Z,99787.00
2023-06-29T14:27:44.443Z,99785.60
2023-06-29T14:30:12.244Z,99783.80
2023-06-29T14:32:40.356Z,99785.20
2023-06-29T14:35:07.775Z,99781.80
2023-06-29T14:37:34.895Z,99789.60
2023-06-29T14:40:03.557Z,99787.40
2023-06-29T14:42:31.596Z,99790.40
2023-06-29T14:44:58.764Z,99783.40
2023-06-29T14:47:25.960Z,99784.00
2023-06-29T14:49:53.095Z,99782.80
2023-06-29T14:52:20.386Z,99778.60
2023-06-29T14:54:47.510Z,99780.80
2023-06-29T14:57:14.693Z,99781.20
2023-06-29T14:59:41.919Z,99780.00
2023-06-29T15:02:09.199Z,99782.80
2023-06-29T15:04:36.405Z,99785.40
2023-06-29T15:07:03.604Z,99780.00
2023-06-29T15:09:30.971Z,99783.00
2023-06-29T15:11:58.471Z,99789.40
2023-06-29T15:14:26.193Z,99784.20
2023-06-29T15:16:54.569Z,99789.80
2023-06-29T15:19:21.978Z,99793.80
2023-06-29T15:21:49.914Z,99791.40
2023-06-29T15:24:17.079Z,99790.20
2023-06-29T15:26:44.234Z,99794.80
2023-06-29T15:29:11.330Z,99786.20
2023-06-29T15:31:38.651Z,99791.40
2023-06-29T15:34:05.789Z,99790.40
2023-06-29T15:36:32.922Z,99792.80
2023-06-29T15:39:00.295Z,99791.80
2023-06-29T15:41:27.584Z,99789.60
2023-06-29T15:44:03.478Z,99790.40
2023-06-29T15:46:30.638Z,99791.60
2023-06-29T15:48:57.880Z,99788.40
2023-06-29T15:51:25.140Z,99787.20
2023-06-29T15:53:52.263Z,99789.00
2023-06-29T15:56:19.482Z,99784.20
2023-06-29T15:58:46.626Z,99783.40
2023-06-29T16:01:16.533Z,99781.80
2023-06-29T16:03:43.768Z,99779.20
2023-06-29T16:06:11.071Z,99778.00
2023-06-29T16:08:38.316Z,99778.80
2023-06-29T16:11:05.595Z,99779.80
2023-06-29T16:13:32.761Z,99779.80
2023-06-29T16:15:59.934Z,99784.80
2023-06-29T16:18:27.090Z,99784.80
2023-06-29T16:20:54.267Z,99782.00
2023-06-29T16:23:21.391Z,99781.80
2023-06-29T16:25:48.813Z,99780.40
2023-06-29T16:28:15.972Z,99781.60
2023-06-29T16:30:43.137Z,99780.80
2023-06-29T16:33:10.767Z,99783.60
2023-06-29T16:35:37.921Z,99779.20
2023-06-29T16:38:05.051Z,99781.40
2023-06-29T16:40:32.321Z,99783.80
2023-06-29T16:42:59.466Z,99784.60
2023-06-29T16:45:27.288Z,99782.80
2023-06-29T16:47:55.748Z,99783.20
2023-06-29T16:50:23.844Z,99780.80
2023-06-29T16:52:51.049Z,99782.60
2023-06-29T16:55:18.117Z,99784.40
2023-06-29T16:57:45.350Z,99785.40
2023-06-29T17:00:12.987Z,99786.60
2023-06-29T17:02:40.120Z,99786.60
2023-06-29T17:05:08.008Z,99787.60
2023-06-29T17:07:35.229Z,99792.20
2023-06-29T17:10:02.540Z,99794.40
2023-06-29T17:12:29.765Z,99791.60
2023-06-29T17:14:57.031Z,99787.20
2023-06-29T17:17:24.308Z,99792.20
2023-06-29T17:19:51.764Z,99793.80
2023-06-29T17:22:19.417Z,99794.80
2023-06-29T17:24:46.490Z,99796.80
2023-06-29T17:27:13.604Z,99799.40
2023-06-29T17:29:41.629Z,99799.40
2023-06-29T17:32:09.218Z,99798.60
2023-06-29T17:34:37.256Z,99800.20
2023-06-29T17:37:04.616Z,99802.20
2023-06-29T17:39:31.844Z,99805.20
2023-06-29T17:41:59.825Z,99803.20
2023-06-29T17:44:27.129Z,99807.20
2023-06-29T17:46:54.383Z,99808.60
2023-06-29T17:49:21.895Z,99810.00
2023-06-29T17:51:48.961Z,99810.20
2023-06-29T17:54:16.086Z,99814.80
2023-06-29T17:56:43.208Z,99814.60
2023-06-29T17:59:10.616Z,99819.20
2023-06-29T18:01:37.872Z,99813.20
2023-06-29T18:04:05.233Z,99814.40
2023-06-29T18:06:32.536Z,99813.20
2023-06-29T18:08:59.717Z,99813.40
2023-06-29T18:11:28.357Z,99809.80
2023-06-29T18:13:55.540Z,99809.40
2023-06-29T18:16:22.788Z,99814.20
2023-06-29T18:18:50.029Z,99816.00
2023-06-29T18:21:17.259Z,99815.40
2023-06-29T18:23:44.515Z,99817.80
2023-06-29T18:26:11.595Z,99821.40
2023-06-29T18:28:38.767Z,99823.20
2023-06-29T18:31:05.902Z,99823.40
2023-06-29T18:33:33.195Z,99827.20
2023-06-29T18:36:00.399Z,99831.60
2023-06-29T18:38:27.508Z,99837.00
2023-06-29T18:40:59.913Z,99841.00
2023-06-29T18:43:26.944Z,99846.80
2023-06-29T18:45:54.058Z,99844.80
2023-06-29T18:48:21.188Z,99851.20
2023-06-29T18:50:48.406Z,99856.80
2023-06-29T18:53:15.687Z,99855.40
2023-06-29T18:55:42.790Z,99853.60
2023-06-29T18:58:10.022Z,99849.20
2023-06-29T19:00:37.271Z,99856.80
2023-06-29T19:03:04.440Z,99860.00
2023-06-29T19:05:31.618Z,99860.80
2023-06-29T19:07:58.988Z,99863.00
2023-06-29T19:10:26.540Z,99868.40
2023-06-29T19:12:53.732Z,99874.40
2023-06-29T19:15:20.906Z,99874.20
2023-06-29T19:17:48.152Z,99871.60
2023-06-29T19:20:15.418Z,99871.00
2023-06-29T19:22:42.564Z,99872.00
2023-06-29T19:25:09.717Z,99873.80
2023-06-29T19:27:36.830Z,99877.60
2023-06-29T19:30:04.542Z,99877.00
2023-06-29T19:32:32.009Z,99876.60
2023-06-29T19:34:59.102Z,99881.80
2023-06-29T19:37:27.409Z,99886.60
2023-06-29T19:39:54.571Z,99889.20
2023-06-29T19:42:21.770Z,99888.60
2023-06-29T19:44:48.979Z,99888.20
2023-06-29T19:47:16.140Z,99887.20
2023-06-29T19:49:43.251Z,99887.40
2023-06-29T19:52:10.518Z,99890.60
2023-06-29T19:54:37.713Z,99893.00
2023-06-29T19:57:05.339Z,99886.60
2023-06-29T19:59:32.420Z,99885.80
2023-06-29T20:01:59.563Z,99889.80
2023-06-29T20:04:26.913Z,99890.80
2023-06-29T20:06:54.156Z,99884.20
2023-06-29T20:09:21.327Z,99883.80
2023-06-29T20:11:48.498Z,99887.80
2023-06-29T20:14:15.780Z,99883.80
2023-06-29T20:16:43.095Z,99886.00
2023-06-29T20:19:10.360Z,99887.40
2023-06-29T20:21:37.582Z,99892.40
2023-06-29T20:24:05.028Z,99893.40
2023-06-29T20:26:32.882Z,99893.00
2023-06-29T20:29:00.222Z,99900.00
2023-06-29T20:31:27.356Z,99894.40
2023-06-29T20:33:54.601Z,99896.00
2023-06-29T20:36:21.828Z,99894.00
2023-06-29T20:38:49.100Z,99900.60
2023-06-29T20:41:16.281Z,99899.20
2023-06-29T20:43:46.766Z,99898.00
2023-06-29T20:46:16.310Z,99897.60
2023-06-29T20:48:43.629Z,99899.60
2023-06-29T20:51:17.530Z,99897.80
2023-06-29T20:53:46.011Z,99896.60
2023-06-29T20:56:13.209Z,99894.40
2023-06-29T20:58:40.379Z,99894.40
2023-06-29T21:01:07.750Z,99896.20
2023-06-29T21:03:35.500Z,99894.60
2023-06-29T21:06:03.079Z,99889.80
2023-06-29T21:08:30.677Z,99889.00
2023-06-29T21:10:57.876Z,99886.40
2023-06-29T21:13:25.364Z,99884.80
2023-06-29T21:15:52.846Z,99883.20
2023-06-29T21:18:20.469Z,99886.80
2023-06-29T21:20:47.776Z,99889.00
2023-06-29T21:23:15.127Z,99889.40
2023-06-29T21:25:42.337Z,99890.00
2023-06-29T21:28:12.076Z,99886.60
2023-06-29T21:30:39.648Z,99884.40
2023-06-29T21:33:07.354Z,99892.00
2023-06-29T21:35:35.257Z,99890.20
2023-06-29T21:38:02.872Z,99888.40
2023-06-29T21:40:30.038Z,99894.20
2023-06-29T21:42:57.346Z,99892.00
2023-06-29T21:45:27.274Z,99895.00
2023-06-29T21:47:54.803Z,99894.40
2023-06-29T21:50:22.103Z,99892.00
2023-06-29T21:52:49.325Z,99886.00
2023-06-29T21:55:17.774Z,99890.40
2023-06-29T21:57:44.894Z,99889.60
2023-06-29T22:00:16.015Z,99891.80
2023-06-29T22:02:44.232Z,99896.80
2023-06-29T22:05:13.170Z,99892.40
2023-06-29T22:07:40.899Z,99887.20
2023-06-29T22:10:09.354Z,99885.60
2023-06-29T22:12:41.877Z,99882.00
2023-06-29T22:15:13.532Z,99883.40
2023-06-29T22:17:41.596Z,99885.20
2023-06-29T22:20:24.292Z,99884.80
2023-06-29T22:22:51.456Z,99888.20
2023-06-29T22:25:18.544Z,99892.40
2023-06-29T22:27:45.602Z,99888.60
2023-06-29T22:30:12.791Z,99886.20
2023-06-29T22:32:40.635Z,99887.60
2023-06-29T22:35:09.239Z,99892.40
2023-06-29T22:37:36.314Z,99894.20
2023-06-29T22:40:05.539Z,99893.40
2023-06-29T22:42:32.626Z,99892.60
2023-06-29T22:44:59.735Z,99887.20
2023-06-29T22:47:27.520Z,99887.00
2023-06-29T22:49:55.314Z,99890.80
2023-06-29T22:52:23.629Z,99894.80
2023-06-29T22:54:52.994Z,99895.60
2023-06-29T22:57:21.722Z,99894.40
2023-06-29T22:59:54.121Z,99891.40
2023-06-29T23:02:21.691Z,99890.20
2023-06-29T23:04:48.982Z,99884.80
2023-06-29T23:07:16.095Z,99886.00
2023-06-29T23:09:44.039Z,99884.20
2023-06-29T23:12:11.287Z,99882.20
2023-06-29T23:14:38.434Z,99884.60
2023-06-29T23:17:05.825Z,99887.00
2023-06-29T23:19:36.087Z,99891.40
2023-06-29T23:22:04.105Z,99887.40
2023-06-29T23:24:31.230Z,99890.20
2023-06-29T23:26:58.353Z,99891.00
2023-06-29T23:29:25.484Z,99892.80
2023-06-29T23:31:52.733Z,99899.80
2023-06-29T23:34:21.813Z,99905.80
2023-06-29T23:36:49.123Z,99901.60
2023-06-29T23:39:16.541Z,99899.40
2023-06-29T23:41:43.756Z,99901.00
2023-06-29T23:44:11.640Z,99898.60
2023-06-29T23:46:44.340Z,99899.80
2023-06-29T23:49:14.099Z,99902.00
2023-06-29T23:51:42.777Z,99898.60
2023-06-29T23:54:10.737Z,99902.20
2023-06-29T23:56:39.415Z,99895.20
2023-06-29T23:59:07.627Z,99896.20
